Terminal Aerodrome Forecast
Issued by NWS

Home | Current Version | Previous Version | Text Only | Print | Product List | Glossary On
Versions: 1 2 3 4 5 6 7 8 9 10 11 12 13 14 15 16 17 18 19 20 21 22 23 24 25 26
000
FTUS41 KOKX 252000 AAA
TAFGON
TAF AMD
KGON 252045Z 2521/2618 29014G24KT P6SM BKN060
     FM252300 29011G20KT P6SM SCT060
     FM260100 29008KT P6SM SKC
     FM260800 28005KT P6SM SKC
     FM261400 28010KT P6SM FEW025=

USA.gov is the U.S. government's official web portal to all federal, state and local government web resources and services.